Time;durP1;ratioP1;P1;durP2;ratioP2;P2;SDS_P1;SDS_P2;PMS_P1;PMS_P2;Temp;Humidity;BMP_temperature;BMP_pressure;BME280_temperature;BME280_humidity;BME280_pressure;Samples;Min_cycle;Max_cycle;Signal;HPM_P1;HPM_P2
2023/12/30 00:00:22;;;;;;;9.10;2.53;;;8.60;99.90;;;;;;5033352;28;20661;-46
2023/12/30 00:02:48;;;;;;;5.30;1.50;;;8.60;99.90;;;;;;5016355;28;20644;-46
2023/12/30 00:05:17;;;;;;;9.53;1.53;;;8.70;99.90;;;;;;5015161;28;20187;-48
2023/12/30 00:07:55;;;;;;;9.07;1.60;;;8.70;99.90;;;;;;5032636;28;20255;-46
2023/12/30 00:10:30;;;;;;;8.03;1.87;;;8.70;99.90;;;;;;5033253;28;20204;-48
2023/12/30 00:12:57;;;;;;;11.90;1.80;;;8.70;99.90;;;;;;5029481;28;20199;-47
2023/12/30 00:15:23;;;;;;;8.27;2.47;;;8.70;99.90;;;;;;5033299;28;20194;-46
2023/12/30 00:18:35;;;;;;;13.60;2.27;;;8.70;99.90;;;;;;5033501;28;20180;-46
2023/12/30 00:21:02;;;;;;;10.57;1.77;;;8.70;99.90;;;;;;5033403;28;20556;-46
2023/12/30 00:23:31;;;;;;;9.87;2.40;;;8.70;99.90;;;;;;5033119;28;20179;-46
2023/12/30 00:26:00;;;;;;;11.63;1.80;;;8.70;99.90;;;;;;5033445;28;20176;-48
2023/12/30 00:28:37;;;;;;;13.30;1.73;;;8.70;99.90;;;;;;5033492;28;20522;-46
2023/12/30 00:31:03;;;;;;;6.23;1.67;;;8.60;99.90;;;;;;5037196;28;20676;-47
2023/12/30 00:33:30;;;;;;;9.60;2.10;;;8.60;99.90;;;;;;5042609;28;20249;-47
2023/12/30 00:36:02;;;;;;;11.07;2.23;;;8.70;99.90;;;;;;5040358;28;20221;-47
2023/12/30 00:38:29;;;;;;;9.60;2.27;;;8.70;99.90;;;;;;5018829;28;20227;-48
2023/12/30 00:40:58;;;;;;;11.87;2.13;;;8.80;99.90;;;;;;5033695;28;20709;-46
2023/12/30 00:43:27;;;;;;;5.60;1.30;;;8.70;99.90;;;;;;5033522;28;20223;-46
2023/12/30 00:45:53;;;;;;;12.43;2.03;;;8.80;99.90;;;;;;5033436;28;20197;-47
2023/12/30 00:48:20;;;;;;;10.03;2.20;;;8.80;99.90;;;;;;5015853;28;20199;-46
2023/12/30 00:50:50;;;;;;;13.97;1.53;;;8.80;99.90;;;;;;5033305;28;20225;-46
2023/12/30 00:53:16;;;;;;;6.90;2.13;;;8.80;99.90;;;;;;5033757;28;20167;-47
2023/12/30 00:55:46;;;;;;;11.47;2.70;;;8.80;99.90;;;;;;5032931;28;20706;-49
2023/12/30 00:58:14;;;;;;;13.40;1.80;;;8.80;99.90;;;;;;5027923;28;20732;-47
2023/12/30 01:00:40;;;;;;;15.10;2.30;;;8.80;99.90;;;;;;5032965;28;20594;-46
2023/12/30 01:03:05;;;;;;;14.63;2.00;;;8.80;99.90;;;;;;5033138;28;20173;-48
2023/12/30 01:05:31;;;;;;;6.63;1.73;;;8.70;99.90;;;;;;5033360;28;20208;-47
2023/12/30 01:08:21;;;;;;;7.33;2.00;;;8.70;99.90;;;;;;5033291;28;20177;-48
2023/12/30 01:10:47;;;;;;;16.40;2.00;;;8.80;99.90;;;;;;5033039;28;20212;-48
2023/12/30 01:13:13;;;;;;;12.13;2.47;;;8.80;99.90;;;;;;5033273;28;20182;-47
2023/12/30 01:15:40;;;;;;;4.73;0.90;;;8.70;99.90;;;;;;5032957;28;20214;-48
2023/12/30 01:18:05;;;;;;;6.77;1.57;;;8.70;99.90;;;;;;5033192;28;20323;-44
2023/12/30 01:20:31;;;;;;;8.57;2.20;;;8.70;99.90;;;;;;5036069;28;20288;-47
2023/12/30 01:22:57;;;;;;;11.23;1.90;;;8.60;99.90;;;;;;5036387;28;20208;-47
2023/12/30 01:25:25;;;;;;;11.10;1.93;;;8.60;99.90;;;;;;5036558;28;20275;-45
2023/12/30 01:27:51;;;;;;;11.60;2.10;;;8.60;99.90;;;;;;5036316;28;20190;-47
2023/12/30 01:30:17;;;;;;;4.40;1.60;;;8.60;99.90;;;;;;5036055;28;20212;-47
2023/12/30 01:32:45;;;;;;;7.00;1.73;;;8.50;99.90;;;;;;5018505;28;20181;-46
2023/12/30 01:35:15;;;;;;;9.80;1.07;;;8.50;99.90;;;;;;5036360;28;20205;-46
2023/12/30 01:37:47;;;;;;;14.30;1.90;;;8.50;99.90;;;;;;5036419;28;20192;-47
2023/12/30 01:40:13;;;;;;;11.63;1.57;;;8.50;99.90;;;;;;5036167;28;20197;-48
2023/12/30 01:42:41;;;;;;;10.57;1.67;;;8.50;99.90;;;;;;5036866;28;20663;-48
2023/12/30 01:45:07;;;;;;;11.87;1.97;;;8.50;99.90;;;;;;5001920;28;20185;-47
2023/12/30 01:48:17;;;;;;;14.50;2.30;;;8.50;99.90;;;;;;5036217;28;20240;-48
2023/12/30 01:50:43;;;;;;;6.90;1.80;;;8.50;99.90;;;;;;5035906;28;20209;-47
2023/12/30 01:53:12;;;;;;;8.03;1.50;;;8.50;99.90;;;;;;5035938;28;20181;-47
2023/12/30 01:55:37;;;;;;;8.97;1.70;;;8.50;99.90;;;;;;5035004;28;20222;-47
2023/12/30 01:58:23;;;;;;;10.23;2.47;;;8.50;99.90;;;;;;5036826;28;20480;-46
2023/12/30 02:00:51;;;;;;;8.73;1.63;;;8.50;99.90;;;;;;5035763;28;20197;-48
2023/12/30 02:03:23;;;;;;;9.37;1.77;;;8.50;99.90;;;;;;5018031;28;20291;-47
2023/12/30 02:05:49;;;;;;;7.77;1.77;;;8.50;99.90;;;;;;5035926;28;20265;-49
2023/12/30 02:08:20;;;;;;;11.97;2.00;;;8.50;99.90;;;;;;5035516;28;20219;-47
2023/12/30 02:10:49;;;;;;;6.17;1.37;;;8.50;99.90;;;;;;5035372;28;20245;-48
2023/12/30 02:16:42;;;;;;;8.83;2.17;;;8.50;99.90;;;;;;5035518;28;20237;-47
2023/12/30 02:19:09;;;;;;;5.43;1.43;;;8.50;99.90;;;;;;5035582;28;20185;-46
2023/12/30 02:21:36;;;;;;;12.20;1.83;;;8.50;99.90;;;;;;5035217;28;20204;-47
2023/12/30 02:24:02;;;;;;;6.97;1.17;;;8.50;99.90;;;;;;5017877;28;20198;-47
2023/12/30 02:26:30;;;;;;;3.30;0.77;;;8.50;99.90;;;;;;5035467;28;20227;-48
2023/12/30 02:28:56;;;;;;;7.90;2.03;;;9.40;99.90;;;;;;5035391;28;20185;-48
2023/12/30 02:31:24;;;;;;;8.57;1.90;;;8.60;99.90;;;;;;5034075;28;20667;-47
2023/12/30 02:33:53;;;;;;;10.03;2.13;;;8.60;99.90;;;;;;5034837;28;20198;-47
2023/12/30 02:36:22;;;;;;;6.60;2.33;;;8.60;99.90;;;;;;5017507;28;20294;-49
2023/12/30 02:38:48;;;;;;;10.70;2.10;;;8.60;99.90;;;;;;5035310;28;20185;-47
2023/12/30 02:41:17;;;;;;;7.57;1.90;;;8.60;99.90;;;;;;5018178;28;20673;-47
2023/12/30 02:44:02;;;;;;;8.43;1.63;;;8.60;99.90;;;;;;5034792;28;20178;-47
2023/12/30 02:46:28;;;;;;;11.67;2.40;;;8.60;99.90;;;;;;5034780;28;20169;-49
2023/12/30 02:48:53;;;;;;;16.27;2.17;;;8.60;99.90;;;;;;5034718;28;20539;-48
2023/12/30 02:51:22;;;;;;;7.97;1.70;;;8.50;99.90;;;;;;5017301;28;20204;-47
2023/12/30 02:53:48;;;;;;;7.23;1.30;;;8.60;99.90;;;;;;5034827;28;20217;-47
2023/12/30 02:56:27;;;;;;;10.83;2.00;;;8.50;99.90;;;;;;5034551;28;20244;-48
2023/12/30 02:58:58;;;;;;;24.10;3.23;;;8.50;99.90;;;;;;5034474;28;20184;-46
2023/12/30 03:01:55;;;;;;;7.33;1.63;;;8.40;99.90;;;;;;5029384;28;20611;-47
2023/12/30 03:07:07;;;;;;;9.20;2.50;;;8.40;99.90;;;;;;5034456;28;20172;-47
2023/12/30 03:09:35;;;;;;;15.47;1.63;;;8.40;99.90;;;;;;5034215;28;20543;-47
2023/12/30 03:12:04;;;;;;;15.10;2.33;;;8.40;99.90;;;;;;5034295;28;20182;-47
2023/12/30 03:14:32;;;;;;;11.93;2.20;;;8.40;99.90;;;;;;5034319;28;20209;-48
2023/12/30 03:16:58;;;;;;;13.23;2.37;;;8.30;99.90;;;;;;5016502;28;20185;-47
2023/12/30 03:19:27;;;;;;;12.73;2.13;;;8.40;99.90;;;;;;5034181;28;20186;-48
2023/12/30 03:21:53;;;;;;;14.10;2.90;;;8.40;99.90;;;;;;5034640;28;20225;-47
2023/12/30 03:24:19;;;;;;;14.70;2.70;;;8.30;99.90;;;;;;5014852;28;20204;-48
2023/12/30 03:26:45;;;;;;;8.83;1.90;;;8.30;99.90;;;;;;5033846;28;20226;-47
2023/12/30 03:29:11;;;;;;;17.70;2.53;;;8.30;99.90;;;;;;5034225;28;20210;-47
2023/12/30 03:31:36;;;;;;;14.70;2.37;;;8.30;99.90;;;;;;5035195;28;20207;-48
2023/12/30 03:34:02;;;;;;;12.07;2.20;;;8.30;99.90;;;;;;5035039;28;20195;-47
2023/12/30 03:36:28;;;;;;;9.87;2.10;;;8.30;99.90;;;;;;5035957;28;20656;-47
2023/12/30 03:38:53;;;;;;;16.37;2.50;;;8.30;99.90;;;;;;5016371;28;20186;-47
2023/12/30 03:41:20;;;;;;;18.30;2.20;;;8.30;99.90;;;;;;5033591;28;20284;-48
2023/12/30 03:43:47;;;;;;;10.43;1.97;;;8.30;99.90;;;;;;5033113;28;20200;-49
2023/12/30 03:46:16;;;;;;;13.53;4.00;;;8.30;99.90;;;;;;5016207;28;20187;-47
2023/12/30 03:48:45;;;;;;;9.77;2.17;;;8.30;99.90;;;;;;5033894;28;20216;-47
2023/12/30 03:51:14;;;;;;;17.27;2.67;;;8.30;99.90;;;;;;5015963;28;20207;-48
2023/12/30 03:53:42;;;;;;;14.37;2.77;;;8.30;99.90;;;;;;5033695;28;20189;-46
2023/12/30 03:56:08;;;;;;;11.57;1.90;;;8.30;99.90;;;;;;5033716;28;20209;-47
2023/12/30 03:58:59;;;;;;;9.63;2.43;;;8.30;99.90;;;;;;5033768;28;20190;-47
2023/12/30 04:01:27;;;;;;;11.93;2.17;;;8.30;99.90;;;;;;5033385;28;20200;-47
2023/12/30 04:03:52;;;;;;;16.43;2.30;;;8.30;99.90;;;;;;5033597;28;20184;-46
2023/12/30 04:06:21;;;;;;;7.93;2.03;;;8.20;99.90;;;;;;5034176;28;20185;-47
2023/12/30 04:08:48;;;;;;;12.10;2.03;;;8.20;99.90;;;;;;5015989;28;20227;-47
2023/12/30 04:11:14;;;;;;;14.27;2.47;;;8.10;99.90;;;;;;5015597;28;20679;-48
2023/12/30 04:13:42;;;;;;;9.47;1.90;;;8.20;99.90;;;;;;5038577;28;20252;-47
2023/12/30 04:16:46;;;;;;;10.07;1.70;;;8.10;99.90;;;;;;5027104;28;20197;-47
2023/12/30 04:19:12;;;;;;;8.53;1.80;;;8.20;99.90;;;;;;5043584;28;20175;-48
2023/12/30 04:21:43;;;;;;;10.87;2.00;;;8.20;99.90;;;;;;5035835;28;20580;-47
2023/12/30 04:24:15;;;;;;;10.23;1.77;;;8.20;99.90;;;;;;5033621;28;20316;-47
2023/12/30 04:26:43;;;;;;;7.60;2.10;;;8.20;99.90;;;;;;5033953;28;20176;-47
2023/12/30 04:29:18;;;;;;;12.87;3.03;;;8.10;99.90;;;;;;5033497;28;20171;-45
2023/12/30 04:31:44;;;;;;;7.23;2.07;;;8.10;99.90;;;;;;5033051;28;20285;-47
2023/12/30 04:34:13;;;;;;;13.63;2.10;;;8.10;99.90;;;;;;5015352;28;20203;-47
2023/12/30 04:36:41;;;;;;;5.37;1.63;;;8.10;99.90;;;;;;5033403;28;20175;-47
2023/12/30 04:39:07;;;;;;;9.50;2.30;;;8.10;99.90;;;;;;5033278;28;20189;-47
2023/12/30 04:41:33;;;;;;;11.90;2.43;;;8.10;99.90;;;;;;5033114;28;20189;-49
2023/12/30 04:43:58;;;;;;;8.67;2.33;;;8.10;99.90;;;;;;5033490;28;20324;-46
2023/12/30 04:46:24;;;;;;;9.23;2.53;;;8.10;99.90;;;;;;5033823;28;20313;-48
2023/12/30 04:49:02;;;;;;;15.93;2.07;;;8.10;99.90;;;;;;5033437;28;20525;-47
2023/12/30 04:51:59;;;;;;;9.80;2.10;;;8.10;99.90;;;;;;5031825;28;20238;-47
2023/12/30 04:54:30;;;;;;;14.57;2.73;;;8.10;99.90;;;;;;5034680;28;20203;-47
2023/12/30 04:56:59;;;;;;;11.90;2.47;;;8.10;99.90;;;;;;5037344;28;20171;-48
2023/12/30 04:59:26;;;;;;;6.67;1.47;;;8.10;99.90;;;;;;5036766;28;20181;-48
2023/12/30 05:01:54;;;;;;;12.13;2.23;;;8.10;99.90;;;;;;5019299;28;20178;-47
2023/12/30 05:04:20;;;;;;;5.57;1.47;;;8.10;99.90;;;;;;5036823;28;20531;-46
2023/12/30 05:06:50;;;;;;;6.40;1.73;;;8.10;99.90;;;;;;5036975;28;20560;-48
2023/12/30 05:09:16;;;;;;;8.93;1.87;;;8.10;99.90;;;;;;5036656;28;20181;-47
2023/12/30 05:11:49;;;;;;;7.60;1.60;;;8.10;99.90;;;;;;5019150;28;20273;-46
2023/12/30 05:14:15;;;;;;;11.10;1.90;;;8.00;99.90;;;;;;5036704;28;20196;-47
2023/12/30 05:16:46;;;;;;;8.17;2.17;;;8.00;99.90;;;;;;5036010;28;20189;-49
2023/12/30 05:19:14;;;;;;;15.77;2.27;;;8.00;99.90;;;;;;5036689;28;20157;-48
2023/12/30 05:21:48;;;;;;;16.73;2.33;;;8.00;99.90;;;;;;5036601;28;20177;-48
2023/12/30 05:24:21;;;;;;;9.40;1.87;;;8.00;99.90;;;;;;5037078;28;20165;-48
2023/12/30 05:26:48;;;;;;;6.10;1.80;;;8.00;99.90;;;;;;5036545;28;20554;-47
2023/12/30 05:29:14;;;;;;;10.70;2.40;;;8.00;99.90;;;;;;5013136;28;20193;-48
2023/12/30 05:31:40;;;;;;;13.90;3.37;;;8.00;99.90;;;;;;5018940;28;20185;-47
2023/12/30 05:34:06;;;;;;;11.07;2.37;;;8.00;99.90;;;;;;5036093;28;20240;-48
2023/12/30 05:36:37;;;;;;;13.13;2.20;;;7.90;99.90;;;;;;5031104;28;20205;-48
2023/12/30 05:39:05;;;;;;;17.93;2.17;;;7.90;99.90;;;;;;5036421;28;20180;-48
2023/12/30 05:41:31;;;;;;;9.73;2.00;;;7.90;99.90;;;;;;5018654;28;20200;-47
2023/12/30 05:43:57;;;;;;;8.13;1.87;;;7.80;99.90;;;;;;5035992;28;20186;-48
2023/12/30 05:46:26;;;;;;;14.33;2.70;;;7.80;99.90;;;;;;5036251;28;20223;-47
2023/12/30 05:48:52;;;;;;;12.83;2.10;;;7.80;99.90;;;;;;5035907;28;20189;-47
2023/12/30 05:51:18;;;;;;;13.07;2.03;;;7.80;99.90;;;;;;5018171;28;20221;-48
2023/12/30 05:53:43;;;;;;;11.47;1.60;;;7.80;99.90;;;;;;5036035;28;20183;-48
2023/12/30 05:56:10;;;;;;;6.90;1.83;;;7.80;99.90;;;;;;5035621;28;20211;-48
2023/12/30 05:58:37;;;;;;;16.80;2.37;;;7.80;99.90;;;;;;5035975;28;20577;-48
2023/12/30 06:01:04;;;;;;;10.30;2.17;;;7.80;99.90;;;;;;5035614;28;20288;-48
2023/12/30 06:03:30;;;;;;;9.33;1.90;;;7.90;99.90;;;;;;5017994;28;20255;-47
2023/12/30 06:05:58;;;;;;;14.83;2.27;;;7.90;99.90;;;;;;5034776;28;20212;-48
2023/12/30 06:08:40;;;;;;;14.87;2.93;;;7.80;99.90;;;;;;5035446;28;20178;-48
2023/12/30 06:11:06;;;;;;;4.97;1.43;;;7.90;99.90;;;;;;5035513;28;20232;-46
2023/12/30 06:13:33;;;;;;;10.63;2.10;;;7.90;99.90;;;;;;5035327;28;20176;-48
2023/12/30 06:16:00;;;;;;;9.60;2.37;;;7.90;99.90;;;;;;5035830;28;20202;-47
2023/12/30 06:18:31;;;;;;;12.57;2.27;;;7.90;99.90;;;;;;5035419;28;20735;-48
2023/12/30 06:20:58;;;;;;;10.50;2.00;;;7.90;99.90;;;;;;5035474;28;20205;-47
2023/12/30 06:23:30;;;;;;;8.23;1.97;;;8.00;99.90;;;;;;5035401;28;20170;-49
2023/12/30 06:25:57;;;;;;;8.90;2.07;;;8.00;99.90;;;;;;5017503;28;20523;-48
2023/12/30 06:28:26;;;;;;;9.40;2.23;;;8.00;99.90;;;;;;5035315;28;20185;-48
2023/12/30 06:30:52;;;;;;;7.47;1.60;;;8.00;99.90;;;;;;5035131;28;20200;-48
2023/12/30 06:33:22;;;;;;;12.33;2.30;;;8.00;99.90;;;;;;5035226;28;20190;-48
2023/12/30 06:35:52;;;;;;;14.13;3.27;;;8.00;99.90;;;;;;5034937;28;20595;-48
2023/12/30 06:38:18;;;;;;;11.50;2.47;;;8.00;99.90;;;;;;5035204;28;20185;-47
2023/12/30 06:40:47;;;;;;;14.57;2.47;;;8.00;99.90;;;;;;5017292;28;20201;-47
2023/12/30 06:43:13;;;;;;;13.23;2.17;;;8.00;99.90;;;;;;5035063;28;20182;-48
2023/12/30 06:45:41;;;;;;;15.97;2.20;;;7.90;99.90;;;;;;5000909;28;20211;-47
2023/12/30 06:48:07;;;;;;;11.80;1.77;;;7.90;99.90;;;;;;5035074;28;20181;-47
2023/12/30 06:50:34;;;;;;;11.70;2.30;;;7.80;99.90;;;;;;5034867;28;20643;-49
2023/12/30 06:52:59;;;;;;;10.47;1.80;;;7.80;99.90;;;;;;5035227;28;20181;-47
2023/12/30 06:55:25;;;;;;;9.60;1.83;;;7.80;99.90;;;;;;5034809;28;20297;-46
2023/12/30 06:57:51;;;;;;;13.40;2.53;;;7.70;99.90;;;;;;5034790;28;20195;-47
2023/12/30 07:00:18;;;;;;;13.67;2.10;;;7.70;99.90;;;;;;5016886;28;20211;-47
2023/12/30 07:02:44;;;;;;;15.53;2.73;;;7.70;99.90;;;;;;5034431;28;20646;-46
2023/12/30 07:05:12;;;;;;;15.07;2.67;;;7.70;99.90;;;;;;5017166;28;20242;-47
2023/12/30 07:07:38;;;;;;;16.07;2.10;;;7.70;99.90;;;;;;5034586;28;20211;-48
2023/12/30 07:10:37;;;;;;;11.87;2.50;;;7.70;99.90;;;;;;5033898;28;20209;-47
2023/12/30 07:13:06;;;;;;;12.73;2.83;;;7.70;99.90;;;;;;5034422;28;20173;-47
2023/12/30 07:15:31;;;;;;;9.03;2.03;;;7.70;99.90;;;;;;5034484;28;20203;-47
2023/12/30 07:18:00;;;;;;;9.97;2.00;;;7.70;99.90;;;;;;5034049;28;20187;-47
2023/12/30 07:20:26;;;;;;;10.03;2.00;;;7.70;99.90;;;;;;5033596;28;20244;-46
2023/12/30 07:23:05;;;;;;;11.90;2.20;;;7.70;99.90;;;;;;5016276;28;20646;-49
2023/12/30 07:25:31;;;;;;;13.17;2.70;;;7.70;99.90;;;;;;5034236;28;20204;-47
2023/12/30 07:27:57;;;;;;;14.80;2.10;;;7.80;99.90;;;;;;5034024;28;20648;-46
2023/12/30 07:30:23;;;;;;;12.37;2.73;;;7.80;99.90;;;;;;5033993;28;20201;-47
2023/12/30 07:32:49;;;;;;;12.43;2.93;;;7.80;99.90;;;;;;5034028;28;20177;-47
2023/12/30 07:35:15;;;;;;;15.17;2.63;;;7.80;99.90;;;;;;5016160;28;20235;-48
2023/12/30 07:37:40;;;;;;;12.30;2.13;;;7.80;99.90;;;;;;5033819;28;20205;-46
2023/12/30 07:40:09;;;;;;;10.20;2.83;;;7.90;99.90;;;;;;5033807;28;20270;-47
2023/12/30 07:42:40;;;;;;;12.83;2.77;;;7.80;99.90;;;;;;5033703;28;20657;-46
2023/12/30 07:45:06;;;;;;;14.87;2.77;;;7.80;99.90;;;;;;5033915;28;20235;-48
2023/12/30 07:47:33;;;;;;;9.73;1.93;;;7.80;99.90;;;;;;5033929;28;20196;-46
2023/12/30 07:50:02;;;;;;;19.47;3.63;;;7.80;99.90;;;;;;5033526;28;20624;-47
2023/12/30 07:52:27;;;;;;;11.73;2.43;;;7.80;99.90;;;;;;5032340;28;20208;-46
2023/12/30 07:54:53;;;;;;;17.03;3.10;;;7.80;99.90;;;;;;5033511;28;20209;-47
2023/12/30 07:57:20;;;;;;;13.00;2.63;;;7.70;99.90;;;;;;4999575;28;20185;-47
2023/12/30 07:59:45;;;;;;;16.77;3.27;;;7.70;99.90;;;;;;5033541;28;20205;-47
2023/12/30 08:02:11;;;;;;;18.27;3.17;;;7.70;99.90;;;;;;5033911;28;20188;-48
2023/12/30 08:04:37;;;;;;;15.70;2.90;;;7.70;99.90;;;;;;5034715;28;20195;-47
2023/12/30 08:07:02;;;;;;;9.17;2.87;;;7.70;99.90;;;;;;5020612;28;20189;-47
2023/12/30 08:09:28;;;;;;;15.10;2.77;;;7.70;99.90;;;;;;5039119;28;20203;-47
2023/12/30 08:11:55;;;;;;;13.10;3.00;;;7.70;99.90;;;;;;5040237;28;20610;-48
2023/12/30 08:14:21;;;;;;;11.30;2.57;;;7.70;99.90;;;;;;5034946;28;20178;-47
2023/12/30 08:16:52;;;;;;;9.70;3.13;;;7.80;99.90;;;;;;5016935;28;20181;-46
2023/12/30 08:19:25;;;;;;;14.27;2.83;;;7.80;99.90;;;;;;5034119;28;20231;-46
2023/12/30 08:21:51;;;;;;;8.47;2.57;;;7.80;99.90;;;;;;5033609;28;20239;-47
2023/12/30 08:24:19;;;;;;;11.13;2.77;;;7.80;99.90;;;;;;5033713;28;20185;-47
2023/12/30 08:41:03;;;;;;;10.43;2.70;;;8.10;99.90;;;;;;5038740;28;20239;-43
2023/12/30 08:50:54;;;;;;;8.93;1.73;;;8.20;99.90;;;;;;5037389;28;20193;-42
2023/12/30 08:53:24;;;;;;;12.20;3.37;;;8.20;99.90;;;;;;5037444;28;20184;-43
2023/12/30 08:55:52;;;;;;;10.03;2.83;;;8.20;99.90;;;;;;5037165;28;20204;-42
2023/12/30 08:58:18;;;;;;;15.13;3.00;;;8.30;99.90;;;;;;5019903;28;20236;-44
2023/12/30 09:00:44;;;;;;;9.40;2.63;;;8.30;99.90;;;;;;5019336;28;20225;-44
2023/12/30 09:03:10;;;;;;;11.37;2.73;;;8.30;99.90;;;;;;5037010;28;20174;-43
2023/12/30 09:05:35;;;;;;;9.50;2.60;;;8.30;99.90;;;;;;5036602;28;20191;-42
2023/12/30 09:08:03;;;;;;;10.47;2.57;;;8.30;99.90;;;;;;5036928;28;20542;-44
2023/12/30 09:10:31;;;;;;;15.13;2.57;;;8.30;99.90;;;;;;5036990;28;20192;-43
2023/12/30 09:12:58;;;;;;;11.87;2.60;;;8.40;99.90;;;;;;5036857;28;20196;-45
2023/12/30 09:15:30;;;;;;;16.07;3.37;;;8.40;99.90;;;;;;5018973;28;20205;-44
2023/12/30 09:18:01;;;;;;;7.87;2.40;;;8.40;99.90;;;;;;5037580;28;20560;-42
2023/12/30 09:20:27;;;;;;;11.67;2.80;;;8.50;99.90;;;;;;5036347;28;20559;-41
2023/12/30 09:22:53;;;;;;;13.30;2.53;;;8.50;99.90;;;;;;5036705;28;20183;-44
2023/12/30 09:25:19;;;;;;;8.47;2.27;;;8.50;99.90;;;;;;5036688;28;20173;-41
2023/12/30 09:27:48;;;;;;;10.73;1.63;;;8.50;99.90;;;;;;5036422;28;20188;-43
2023/12/30 09:30:14;;;;;;;9.37;2.63;;;8.60;99.90;;;;;;4998479;28;20300;-43
2023/12/30 09:32:39;;;;;;;11.63;2.53;;;8.60;99.90;;;;;;5036671;28;20213;-43
2023/12/30 09:35:06;;;;;;;13.53;2.87;;;8.60;99.90;;;;;;5036655;28;20205;-43
2023/12/30 09:37:36;;;;;;;9.93;2.20;;;8.60;99.90;;;;;;5036360;28;20183;-42
2023/12/30 09:40:03;;;;;;;12.23;2.93;;;8.60;99.90;;;;;;5035668;28;20210;-42
2023/12/30 09:42:29;;;;;;;13.23;2.57;;;8.60;99.90;;;;;;5035912;28;20205;-42
2023/12/30 09:45:01;;;;;;;14.40;2.20;;;8.60;99.90;;;;;;5035931;28;20171;-43
2023/12/30 09:47:28;;;;;;;15.20;2.53;;;8.60;99.90;;;;;;5018967;28;20178;-43
2023/12/30 09:49:57;;;;;;;14.27;2.67;;;8.60;99.90;;;;;;5035424;28;20243;-43
2023/12/30 09:52:24;;;;;;;8.23;2.20;;;8.60;99.90;;;;;;5035964;28;20188;-44
2023/12/30 09:54:53;;;;;;;15.40;2.63;;;8.60;99.90;;;;;;5036076;28;20200;-43
2023/12/30 09:57:21;;;;;;;16.63;2.37;;;8.70;99.90;;;;;;5035785;28;20252;-43
2023/12/30 09:59:48;;;;;;;11.70;2.57;;;8.70;99.90;;;;;;5035747;28;20224;-43
2023/12/30 10:02:20;;;;;;;15.47;2.50;;;8.70;99.90;;;;;;5035712;28;20178;-45
2023/12/30 10:04:52;;;;;;;9.73;2.33;;;8.70;99.90;;;;;;5036005;28;20172;-43
2023/12/30 10:07:20;;;;;;;14.37;2.33;;;8.70;99.90;;;;;;5035468;28;20194;-43
2023/12/30 10:09:50;;;;;;;8.90;2.13;;;8.70;99.90;;;;;;5035840;28;20204;-45
2023/12/30 10:12:16;;;;;;;8.17;1.97;;;8.80;99.90;;;;;;5035727;28;20175;-43
2023/12/30 10:14:42;;;;;;;14.30;2.30;;;8.80;99.90;;;;;;5018192;28;20308;-42
2023/12/30 10:17:08;;;;;;;11.77;2.43;;;8.90;99.90;;;;;;5018117;28;20269;-42
2023/12/30 10:19:35;;;;;;;14.97;2.53;;;8.90;99.90;;;;;;5035263;28;20670;-42
2023/12/30 10:22:01;;;;;;;14.73;2.97;;;8.90;99.90;;;;;;5035586;28;20170;-44
2023/12/30 10:24:27;;;;;;;8.50;2.13;;;8.90;99.90;;;;;;5017839;28;20279;-43
2023/12/30 10:27:04;;;;;;;12.00;2.23;;;9.00;99.90;;;;;;5017587;28;20183;-42
2023/12/30 10:29:30;;;;;;;13.77;2.20;;;9.00;99.90;;;;;;5034355;28;20226;-43
2023/12/30 10:32:00;;;;;;;11.53;2.43;;;9.00;99.90;;;;;;5035460;28;20217;-43
2023/12/30 10:34:27;;;;;;;10.57;2.57;;;9.00;99.90;;;;;;5017686;28;20178;-43
2023/12/30 10:36:53;;;;;;;11.57;3.13;;;9.10;99.90;;;;;;5035507;28;20176;-44
2023/12/30 10:39:22;;;;;;;6.30;2.43;;;9.00;99.90;;;;;;5034930;28;20270;-42
2023/12/30 10:41:48;;;;;;;11.47;2.90;;;9.10;99.90;;;;;;5017359;28;20193;-42
2023/12/30 10:44:17;;;;;;;12.10;2.93;;;9.10;99.90;;;;;;5035158;28;20626;-44
2023/12/30 10:47:29;;;;;;;11.40;2.20;;;9.20;99.90;;;;;;5035566;28;20520;-44
2023/12/30 10:50:04;;;;;;;21.70;3.20;;;9.20;99.90;;;;;;5033987;28;20211;-44
2023/12/30 10:52:46;;;;;;;9.07;1.90;;;9.20;99.90;;;;;;5033978;28;20169;-43
2023/12/30 10:55:17;;;;;;;11.80;2.00;;;9.20;99.90;;;;;;5034631;28;20200;-44
2023/12/30 10:57:57;;;;;;;9.67;2.00;;;9.20;99.90;;;;;;5017127;28;20689;-43
2023/12/30 11:00:24;;;;;;;10.90;2.07;;;9.30;99.90;;;;;;5034550;28;20189;-43
2023/12/30 11:02:52;;;;;;;8.77;2.40;;;9.30;99.90;;;;;;5034311;28;20617;-45
2023/12/30 11:05:43;;;;;;;12.93;2.67;;;9.30;99.90;;;;;;5017022;28;20222;-44
2023/12/30 11:08:17;;;;;;;11.27;2.40;;;9.30;99.90;;;;;;5034738;28;20180;-43
2023/12/30 11:10:43;;;;;;;12.93;2.40;;;9.30;99.90;;;;;;5034214;28;20212;-44
2023/12/30 11:13:09;;;;;;;13.77;2.70;;;9.40;99.90;;;;;;5034084;28;20274;-42
2023/12/30 11:15:35;;;;;;;14.93;2.50;;;9.40;99.90;;;;;;5034248;28;20219;-42
2023/12/30 11:18:01;;;;;;;11.80;2.63;;;9.50;99.90;;;;;;5034188;28;20271;-42
2023/12/30 11:20:33;;;;;;;11.97;2.30;;;9.50;99.90;;;;;;5016767;28;20202;-43
2023/12/30 11:26:21;;;;;;;10.23;2.10;;;9.60;99.90;;;;;;5034053;28;20554;-44
2023/12/30 11:28:53;;;;;;;14.50;2.70;;;9.70;99.90;;;;;;5016812;28;20197;-42
2023/12/30 11:31:37;;;;;;;10.77;2.73;;;9.70;99.90;;;;;;5033948;28;20296;-44
2023/12/30 11:34:09;;;;;;;17.30;2.67;;;9.80;99.90;;;;;;5017852;28;20623;-43
2023/12/30 11:36:35;;;;;;;8.40;1.90;;;9.80;99.90;;;;;;5034436;28;20199;-43
2023/12/30 11:39:00;;;;;;;9.50;2.87;;;9.80;99.90;;;;;;5033997;28;20185;-41
2023/12/30 11:41:31;;;;;;;11.30;2.77;;;9.80;99.90;;;;;;5033840;28;20213;-44
2023/12/30 11:44:05;;;;;;;8.10;1.93;;;9.90;99.90;;;;;;5034052;28;20259;-43
2023/12/30 11:46:31;;;;;;;8.90;1.77;;;9.80;99.90;;;;;;5031608;28;20199;-44
2023/12/30 11:49:00;;;;;;;12.30;2.87;;;9.90;99.90;;;;;;5033709;28;20196;-45
2023/12/30 11:51:31;;;;;;;11.57;2.27;;;9.90;99.90;;;;;;5033372;28;20375;-42
2023/12/30 11:54:03;;;;;;;13.97;1.57;;;9.90;99.90;;;;;;5031701;28;20195;-43
2023/12/30 11:56:29;;;;;;;9.70;2.13;;;10.00;99.90;;;;;;5034039;28;20218;-43
2023/12/30 11:58:55;;;;;;;8.77;1.70;;;10.00;99.90;;;;;;5029198;28;20192;-43
2023/12/30 12:01:21;;;;;;;8.07;1.97;;;10.00;99.90;;;;;;5033235;28;20565;-43
2023/12/30 12:03:47;;;;;;;12.40;1.70;;;10.10;99.90;;;;;;5033525;28;20195;-42
2023/12/30 12:06:15;;;;;;;10.03;1.70;;;10.20;99.90;;;;;;5033799;28;20695;-44
2023/12/30 12:08:44;;;;;;;9.87;1.90;;;10.30;99.90;;;;;;5033206;28;20190;-42
2023/12/30 12:11:11;;;;;;;7.60;2.03;;;10.30;99.90;;;;;;5033312;28;20227;-43
2023/12/30 12:13:37;;;;;;;9.10;1.90;;;10.40;99.90;;;;;;5036522;28;20271;-44
2023/12/30 12:16:04;;;;;;;10.87;2.23;;;10.50;99.90;;;;;;5022715;28;20243;-43
2023/12/30 12:18:31;;;;;;;4.87;1.60;;;10.50;99.90;;;;;;5040527;28;20180;-44
2023/12/30 12:20:59;;;;;;;9.63;1.77;;;10.60;99.90;;;;;;5040067;28;20200;-43
2023/12/30 12:23:25;;;;;;;8.40;2.30;;;10.60;99.90;;;;;;5034566;28;20184;-43
2023/12/30 12:25:51;;;;;;;10.73;1.57;;;10.50;99.90;;;;;;5034076;28;20180;-44
2023/12/30 12:28:23;;;;;;;7.73;1.53;;;10.50;99.90;;;;;;5033704;28;20181;-44
2023/12/30 12:30:49;;;;;;;9.07;2.07;;;10.50;99.90;;;;;;5016652;28;20699;-43
2023/12/30 12:33:18;;;;;;;8.67;1.87;;;10.50;99.90;;;;;;5015047;28;20207;-44
2023/12/30 12:35:44;;;;;;;8.60;1.73;;;10.50;99.90;;;;;;5033582;28;20205;-45
2023/12/30 12:38:12;;;;;;;11.73;1.80;;;10.40;99.90;;;;;;5033395;28;20203;-43
2023/12/30 12:40:38;;;;;;;13.27;2.07;;;10.40;99.90;;;;;;5032717;28;20240;-45
2023/12/30 12:43:05;;;;;;;12.53;1.80;;;10.50;99.90;;;;;;5033147;28;20191;-43
2023/12/30 12:45:33;;;;;;;14.87;2.47;;;10.50;99.90;;;;;;5033415;28;20191;-43
2023/12/30 12:48:06;;;;;;;10.97;2.10;;;10.50;99.90;;;;;;5015832;28;20192;-43
2023/12/30 12:50:32;;;;;;;9.33;1.60;;;10.50;99.90;;;;;;5033288;28;20211;-45
2023/12/30 12:52:58;;;;;;;11.13;2.10;;;10.50;99.90;;;;;;5033604;28;20184;-45
2023/12/30 12:55:25;;;;;;;8.77;2.27;;;10.50;99.90;;;;;;5033533;28;20196;-43
2023/12/30 12:57:51;;;;;;;10.03;1.87;;;10.60;99.90;;;;;;5015913;28;20195;-45
2023/12/30 13:00:20;;;;;;;7.57;1.60;;;10.60;99.90;;;;;;5016047;28;20567;-46
2023/12/30 13:02:46;;;;;;;7.40;1.90;;;10.60;99.90;;;;;;5033279;28;20230;-43
2023/12/30 13:05:15;;;;;;;9.97;2.03;;;10.70;99.90;;;;;;5033087;28;20184;-44
2023/12/30 13:07:44;;;;;;;4.60;1.70;;;10.70;99.90;;;;;;5033494;28;20192;-47
2023/12/30 13:13:14;;;;;;;7.67;1.53;;;10.70;99.90;;;;;;4942462;29;20184;-45
2023/12/30 13:15:41;;;;;;;12.80;1.80;;;10.80;99.90;;;;;;4955295;28;20676;-49
2023/12/30 13:18:11;;;;;;;7.77;1.40;;;10.80;99.90;;;;;;4994257;28;20188;-48
2023/12/30 13:20:44;;;;;;;10.07;1.87;;;10.80;99.90;;;;;;5035662;28;20684;-48
2023/12/30 13:23:35;;;;;;;9.13;1.80;;;10.90;99.90;;;;;;5036564;28;20161;-47
2023/12/30 13:26:01;;;;;;;6.00;1.40;;;10.90;99.90;;;;;;5036609;28;20185;-49
2023/12/30 13:28:26;;;;;;;9.10;2.27;;;10.90;99.90;;;;;;5018887;28;20605;-48
2023/12/30 13:30:52;;;;;;;6.03;1.40;;;10.90;99.90;;;;;;5036160;28;20200;-47
2023/12/30 13:33:20;;;;;;;7.10;1.50;;;10.90;99.90;;;;;;5035622;28;20204;-48